sensor_id;sensor_type;location;lat;lon;timestamp;P1;durP1;ratioP1;P2;durP2;ratioP2
45730;SDS011;31440;48.584;13.460;2023-02-26T00:02:38;1.85;;;1.70;;
45730;SDS011;31440;48.584;13.460;2023-02-26T00:05:44;1.83;;;1.50;;
45730;SDS011;31440;48.584;13.460;2023-02-26T00:08:48;2.08;;;1.67;;
45730;SDS011;31440;48.584;13.460;2023-02-26T00:11:53;2.38;;;1.90;;
45730;SDS011;31440;48.584;13.460;2023-02-26T00:14:58;2.83;;;1.58;;
45730;SDS011;31440;48.584;13.460;2023-02-26T00:18:08;3.00;;;1.60;;
45730;SDS011;31440;48.584;13.460;2023-02-26T00:24:22;2.83;;;2.13;;
45730;SDS011;31440;48.584;13.460;2023-02-26T00:27:27;2.35;;;1.88;;
45730;SDS011;31440;48.584;13.460;2023-02-26T00:30:31;3.88;;;1.80;;
45730;SDS011;31440;48.584;13.460;2023-02-26T00:33:37;1.98;;;1.83;;
45730;SDS011;31440;48.584;13.460;2023-02-26T00:40:18;1.75;;;1.35;;
45730;SDS011;31440;48.584;13.460;2023-02-26T00:43:31;1.20;;;1.10;;
45730;SDS011;31440;48.584;13.460;2023-02-26T00:53:27;1.27;;;1.17;;
45730;SDS011;31440;48.584;13.460;2023-02-26T00:56:37;1.65;;;1.02;;
45730;SDS011;31440;48.584;13.460;2023-02-26T00:59:42;1.20;;;0.95;;
45730;SDS011;31440;48.584;13.460;2023-02-26T01:02:47;1.08;;;1.02;;
45730;SDS011;31440;48.584;13.460;2023-02-26T01:05:52;1.65;;;1.42;;
45730;SDS011;31440;48.584;13.460;2023-02-26T01:12:11;1.10;;;0.80;;
45730;SDS011;31440;48.584;13.460;2023-02-26T01:15:17;1.00;;;0.90;;
45730;SDS011;31440;48.584;13.460;2023-02-26T01:18:27;1.20;;;1.10;;
45730;SDS011;31440;48.584;13.460;2023-02-26T01:21:47;0.88;;;0.80;;
45730;SDS011;31440;48.584;13.460;2023-02-26T01:25:00;0.90;;;0.90;;
45730;SDS011;31440;48.584;13.460;2023-02-26T01:28:16;1.20;;;0.90;;
45730;SDS011;31440;48.584;13.460;2023-02-26T01:34:50;1.00;;;0.90;;
45730;SDS011;31440;48.584;13.460;2023-02-26T01:45:23;1.48;;;0.98;;
45730;SDS011;31440;48.584;13.460;2023-02-26T01:48:15;3.10;;;1.15;;
45730;SDS011;31440;48.584;13.460;2023-02-26T01:54:55;2.78;;;2.58;;
45730;SDS011;31440;48.584;13.460;2023-02-26T01:57:59;2.38;;;0.80;;
45730;SDS011;31440;48.584;13.460;2023-02-26T02:01:05;1.00;;;0.85;;
45730;SDS011;31440;48.584;13.460;2023-02-26T02:04:12;1.65;;;1.00;;
45730;SDS011;31440;48.584;13.460;2023-02-26T02:07:19;2.90;;;1.10;;
45730;SDS011;31440;48.584;13.460;2023-02-26T02:10:24;1.38;;;0.88;;
45730;SDS011;31440;48.584;13.460;2023-02-26T02:16:58;2.05;;;1.85;;
45730;SDS011;31440;48.584;13.460;2023-02-26T02:23:18;1.48;;;1.00;;
45730;SDS011;31440;48.584;13.460;2023-02-26T02:30:14;1.33;;;0.80;;
45730;SDS011;31440;48.584;13.460;2023-02-26T02:33:52;2.42;;;1.40;;
45730;SDS011;31440;48.584;13.460;2023-02-26T02:37:00;1.67;;;1.30;;
45730;SDS011;31440;48.584;13.460;2023-02-26T02:40:13;1.40;;;1.30;;
45730;SDS011;31440;48.584;13.460;2023-02-26T02:43:26;1.85;;;1.13;;
45730;SDS011;31440;48.584;13.460;2023-02-26T02:46:36;1.40;;;1.10;;
45730;SDS011;31440;48.584;13.460;2023-02-26T02:50:04;1.85;;;1.23;;
45730;SDS011;31440;48.584;13.460;2023-02-26T02:53:16;1.40;;;1.30;;
45730;SDS011;31440;48.584;13.460;2023-02-26T02:59:46;2.08;;;1.42;;
45730;SDS011;31440;48.584;13.460;2023-02-26T03:03:15;1.27;;;1.08;;
45730;SDS011;31440;48.584;13.460;2023-02-26T03:06:21;1.20;;;1.10;;
45730;SDS011;31440;48.584;13.460;2023-02-26T03:09:27;1.27;;;1.17;;
45730;SDS011;31440;48.584;13.460;2023-02-26T03:12:32;1.25;;;1.10;;
45730;SDS011;31440;48.584;13.460;2023-02-26T03:15:41;2.00;;;1.42;;
45730;SDS011;31440;48.584;13.460;2023-02-26T03:26:32;2.03;;;1.48;;
45730;SDS011;31440;48.584;13.460;2023-02-26T03:29:51;2.03;;;1.50;;
45730;SDS011;31440;48.584;13.460;2023-02-26T03:33:21;3.35;;;1.38;;
45730;SDS011;31440;48.584;13.460;2023-02-26T03:40:05;2.05;;;1.63;;
45730;SDS011;31440;48.584;13.460;2023-02-26T03:43:27;1.73;;;1.35;;
45730;SDS011;31440;48.584;13.460;2023-02-26T03:46:43;2.42;;;1.67;;
45730;SDS011;31440;48.584;13.460;2023-02-26T03:49:58;3.28;;;1.63;;
45730;SDS011;31440;48.584;13.460;2023-02-26T03:53:09;2.50;;;1.80;;
45730;SDS011;31440;48.584;13.460;2023-02-26T03:56:25;3.35;;;2.00;;
45730;SDS011;31440;48.584;13.460;2023-02-26T03:59:53;2.17;;;1.50;;
45730;SDS011;31440;48.584;13.460;2023-02-26T04:06:31;1.90;;;1.30;;
45730;SDS011;31440;48.584;13.460;2023-02-26T04:09:42;2.00;;;1.60;;
45730;SDS011;31440;48.584;13.460;2023-02-26T04:12:49;4.32;;;2.05;;
45730;SDS011;31440;48.584;13.460;2023-02-26T04:15:53;2.22;;;1.80;;
45730;SDS011;31440;48.584;13.460;2023-02-26T04:18:58;2.50;;;1.63;;
45730;SDS011;31440;48.584;13.460;2023-02-26T04:22:03;2.33;;;1.65;;
45730;SDS011;31440;48.584;13.460;2023-02-26T04:25:08;1.70;;;1.60;;
45730;SDS011;31440;48.584;13.460;2023-02-26T04:28:13;4.82;;;1.95;;
45730;SDS011;31440;48.584;13.460;2023-02-26T04:31:18;1.45;;;1.35;;
45730;SDS011;31440;48.584;13.460;2023-02-26T04:34:23;1.80;;;1.20;;
45730;SDS011;31440;48.584;13.460;2023-02-26T04:37:29;1.48;;;1.27;;
45730;SDS011;31440;48.584;13.460;2023-02-26T04:40:34;2.03;;;1.70;;
45730;SDS011;31440;48.584;13.460;2023-02-26T04:43:38;2.05;;;1.50;;
45730;SDS011;31440;48.584;13.460;2023-02-26T04:46:54;1.98;;;1.77;;
45730;SDS011;31440;48.584;13.460;2023-02-26T04:49:59;2.95;;;1.88;;
45730;SDS011;31440;48.584;13.460;2023-02-26T04:53:04;2.00;;;1.63;;
45730;SDS011;31440;48.584;13.460;2023-02-26T04:56:10;2.05;;;1.60;;
45730;SDS011;31440;48.584;13.460;2023-02-26T04:59:15;2.95;;;1.70;;
45730;SDS011;31440;48.584;13.460;2023-02-26T05:02:20;2.20;;;1.70;;
45730;SDS011;31440;48.584;13.460;2023-02-26T05:05:28;3.08;;;1.70;;
45730;SDS011;31440;48.584;13.460;2023-02-26T05:08:32;1.88;;;1.55;;
45730;SDS011;31440;48.584;13.460;2023-02-26T05:11:37;2.50;;;1.58;;
45730;SDS011;31440;48.584;13.460;2023-02-26T05:14:43;1.92;;;1.60;;
45730;SDS011;31440;48.584;13.460;2023-02-26T05:17:48;1.95;;;1.40;;
45730;SDS011;31440;48.584;13.460;2023-02-26T05:20:53;1.40;;;1.30;;
45730;SDS011;31440;48.584;13.460;2023-02-26T05:23:59;3.45;;;2.08;;
45730;SDS011;31440;48.584;13.460;2023-02-26T05:27:03;1.88;;;1.42;;
45730;SDS011;31440;48.584;13.460;2023-02-26T05:30:10;3.63;;;1.40;;
45730;SDS011;31440;48.584;13.460;2023-02-26T05:33:18;1.90;;;1.58;;
45730;SDS011;31440;48.584;13.460;2023-02-26T05:36:23;2.00;;;1.70;;
45730;SDS011;31440;48.584;13.460;2023-02-26T05:39:28;4.00;;;1.73;;
45730;SDS011;31440;48.584;13.460;2023-02-26T05:42:33;1.50;;;1.40;;
45730;SDS011;31440;48.584;13.460;2023-02-26T05:45:37;2.13;;;1.88;;
45730;SDS011;31440;48.584;13.460;2023-02-26T05:48:42;1.95;;;1.50;;
45730;SDS011;31440;48.584;13.460;2023-02-26T05:51:49;2.30;;;1.73;;
45730;SDS011;31440;48.584;13.460;2023-02-26T05:54:53;1.67;;;1.40;;
45730;SDS011;31440;48.584;13.460;2023-02-26T05:57:59;2.92;;;1.85;;
45730;SDS011;31440;48.584;13.460;2023-02-26T06:01:04;3.25;;;1.70;;
45730;SDS011;31440;48.584;13.460;2023-02-26T06:04:09;3.05;;;1.73;;
45730;SDS011;31440;48.584;13.460;2023-02-26T06:07:13;1.45;;;1.35;;
45730;SDS011;31440;48.584;13.460;2023-02-26T06:10:18;3.67;;;1.88;;
45730;SDS011;31440;48.584;13.460;2023-02-26T06:13:23;4.43;;;1.70;;
45730;SDS011;31440;48.584;13.460;2023-02-26T06:16:28;2.88;;;1.85;;
45730;SDS011;31440;48.584;13.460;2023-02-26T06:19:33;2.35;;;1.80;;
45730;SDS011;31440;48.584;13.460;2023-02-26T06:22:37;2.17;;;1.98;;
45730;SDS011;31440;48.584;13.460;2023-02-26T06:25:42;2.30;;;1.52;;
45730;SDS011;31440;48.584;13.460;2023-02-26T06:28:47;2.28;;;1.63;;
45730;SDS011;31440;48.584;13.460;2023-02-26T06:31:52;2.72;;;1.83;;
45730;SDS011;31440;48.584;13.460;2023-02-26T06:34:56;1.80;;;1.70;;
45730;SDS011;31440;48.584;13.460;2023-02-26T06:38:01;1.58;;;1.42;;
45730;SDS011;31440;48.584;13.460;2023-02-26T06:41:06;2.90;;;1.90;;
45730;SDS011;31440;48.584;13.460;2023-02-26T06:44:12;2.58;;;1.90;;
45730;SDS011;31440;48.584;13.460;2023-02-26T06:47:16;1.70;;;1.38;;
45730;SDS011;31440;48.584;13.460;2023-02-26T06:50:21;1.90;;;1.30;;
45730;SDS011;31440;48.584;13.460;2023-02-26T06:53:26;1.58;;;1.48;;
45730;SDS011;31440;48.584;13.460;2023-02-26T06:56:30;1.20;;;1.05;;
45730;SDS011;31440;48.584;13.460;2023-02-26T06:59:35;1.27;;;1.17;;
45730;SDS011;31440;48.584;13.460;2023-02-26T07:02:40;2.60;;;1.60;;
45730;SDS011;31440;48.584;13.460;2023-02-26T07:05:45;1.38;;;1.27;;
45730;SDS011;31440;48.584;13.460;2023-02-26T07:08:50;1.67;;;1.58;;
45730;SDS011;31440;48.584;13.460;2023-02-26T07:11:54;3.60;;;2.47;;
45730;SDS011;31440;48.584;13.460;2023-02-26T07:14:59;3.22;;;2.30;;
45730;SDS011;31440;48.584;13.460;2023-02-26T07:18:03;1.90;;;1.63;;
45730;SDS011;31440;48.584;13.460;2023-02-26T07:21:08;2.47;;;1.73;;
45730;SDS011;31440;48.584;13.460;2023-02-26T07:24:13;2.30;;;1.83;;
45730;SDS011;31440;48.584;13.460;2023-02-26T07:27:17;2.83;;;1.88;;
45730;SDS011;31440;48.584;13.460;2023-02-26T07:30:22;1.48;;;1.38;;
45730;SDS011;31440;48.584;13.460;2023-02-26T07:33:27;3.50;;;1.90;;
45730;SDS011;31440;48.584;13.460;2023-02-26T07:36:32;2.55;;;1.77;;
45730;SDS011;31440;48.584;13.460;2023-02-26T07:39:37;2.20;;;1.70;;
45730;SDS011;31440;48.584;13.460;2023-02-26T07:42:41;1.80;;;1.25;;
45730;SDS011;31440;48.584;13.460;2023-02-26T07:45:48;2.33;;;1.90;;
45730;SDS011;31440;48.584;13.460;2023-02-26T07:48:54;1.42;;;1.33;;
45730;SDS011;31440;48.584;13.460;2023-02-26T07:51:59;1.40;;;1.30;;
45730;SDS011;31440;48.584;13.460;2023-02-26T07:55:04;2.60;;;1.50;;
45730;SDS011;31440;48.584;13.460;2023-02-26T07:58:09;1.30;;;1.20;;
45730;SDS011;31440;48.584;13.460;2023-02-26T08:01:14;1.85;;;1.10;;
45730;SDS011;31440;48.584;13.460;2023-02-26T08:04:18;1.60;;;1.45;;
45730;SDS011;31440;48.584;13.460;2023-02-26T08:07:23;1.45;;;1.20;;
45730;SDS011;31440;48.584;13.460;2023-02-26T08:10:28;1.20;;;1.00;;
45730;SDS011;31440;48.584;13.460;2023-02-26T08:13:33;1.60;;;1.25;;
45730;SDS011;31440;48.584;13.460;2023-02-26T08:16:38;1.30;;;1.13;;
45730;SDS011;31440;48.584;13.460;2023-02-26T08:19:42;1.15;;;1.00;;
45730;SDS011;31440;48.584;13.460;2023-02-26T08:22:49;1.08;;;0.95;;
45730;SDS011;31440;48.584;13.460;2023-02-26T08:26:04;1.88;;;1.40;;
45730;SDS011;31440;48.584;13.460;2023-02-26T08:29:11;1.25;;;1.10;;
45730;SDS011;31440;48.584;13.460;2023-02-26T08:32:16;1.10;;;1.00;;
45730;SDS011;31440;48.584;13.460;2023-02-26T08:35:23;1.00;;;0.90;;
45730;SDS011;31440;48.584;13.460;2023-02-26T08:38:28;1.13;;;1.02;;
45730;SDS011;31440;48.584;13.460;2023-02-26T08:41:32;1.77;;;1.10;;
45730;SDS011;31440;48.584;13.460;2023-02-26T08:44:39;1.25;;;1.15;;
45730;SDS011;31440;48.584;13.460;2023-02-26T08:47:43;0.70;;;0.70;;
45730;SDS011;31440;48.584;13.460;2023-02-26T08:51:00;0.82;;;0.80;;
45730;SDS011;31440;48.584;13.460;2023-02-26T08:54:04;0.65;;;0.65;;
45730;SDS011;31440;48.584;13.460;2023-02-26T08:57:09;0.60;;;0.60;;
45730;SDS011;31440;48.584;13.460;2023-02-26T09:00:14;1.65;;;0.90;;
45730;SDS011;31440;48.584;13.460;2023-02-26T09:03:22;0.98;;;0.80;;
45730;SDS011;31440;48.584;13.460;2023-02-26T09:06:27;0.80;;;0.80;;
45730;SDS011;31440;48.584;13.460;2023-02-26T09:09:32;0.75;;;0.60;;
45730;SDS011;31440;48.584;13.460;2023-02-26T09:12:38;0.70;;;0.70;;
45730;SDS011;31440;48.584;13.460;2023-02-26T09:15:43;1.02;;;0.80;;
45730;SDS011;31440;48.584;13.460;2023-02-26T09:18:48;0.68;;;0.68;;
45730;SDS011;31440;48.584;13.460;2023-02-26T09:21:53;0.80;;;0.80;;
45730;SDS011;31440;48.584;13.460;2023-02-26T09:24:59;0.70;;;0.70;;
45730;SDS011;31440;48.584;13.460;2023-02-26T09:28:04;1.10;;;1.00;;
45730;SDS011;31440;48.584;13.460;2023-02-26T09:31:09;0.70;;;0.70;;
45730;SDS011;31440;48.584;13.460;2023-02-26T09:34:14;0.77;;;0.77;;
45730;SDS011;31440;48.584;13.460;2023-02-26T09:37:18;0.80;;;0.80;;
45730;SDS011;31440;48.584;13.460;2023-02-26T09:44:16;0.88;;;0.88;;
45730;SDS011;31440;48.584;13.460;2023-02-26T09:47:29;1.52;;;0.80;;
45730;SDS011;31440;48.584;13.460;2023-02-26T09:50:47;0.85;;;0.85;;
45730;SDS011;31440;48.584;13.460;2023-02-26T09:53:54;1.90;;;0.90;;
45730;SDS011;31440;48.584;13.460;2023-02-26T09:56:59;0.60;;;0.60;;
45730;SDS011;31440;48.584;13.460;2023-02-26T10:00:28;0.73;;;0.63;;
45730;SDS011;31440;48.584;13.460;2023-02-26T10:07:09;2.28;;;0.88;;
45730;SDS011;31440;48.584;13.460;2023-02-26T10:10:32;1.70;;;0.95;;
45730;SDS011;31440;48.584;13.460;2023-02-26T10:14:01;0.50;;;0.50;;
45730;SDS011;31440;48.584;13.460;2023-02-26T10:17:21;1.00;;;0.90;;
45730;SDS011;31440;48.584;13.460;2023-02-26T10:20:43;1.13;;;0.70;;
45730;SDS011;31440;48.584;13.460;2023-02-26T10:24:13;1.15;;;1.05;;
45730;SDS011;31440;48.584;13.460;2023-02-26T10:27:34;0.65;;;0.65;;
45730;SDS011;31440;48.584;13.460;2023-02-26T10:30:51;1.67;;;0.85;;
45730;SDS011;31440;48.584;13.460;2023-02-26T10:34:07;0.70;;;0.70;;
45730;SDS011;31440;48.584;13.460;2023-02-26T10:37:23;0.82;;;0.70;;
45730;SDS011;31440;48.584;13.460;2023-02-26T10:40:49;0.60;;;0.60;;
45730;SDS011;31440;48.584;13.460;2023-02-26T10:44:18;5.72;;;1.00;;
45730;SDS011;31440;48.584;13.460;2023-02-26T10:47:42;6.38;;;1.30;;
45730;SDS011;31440;48.584;13.460;2023-02-26T10:50:53;5.28;;;1.02;;
45730;SDS011;31440;48.584;13.460;2023-02-26T10:54:03;0.57;;;0.55;;
45730;SDS011;31440;48.584;13.460;2023-02-26T10:57:21;0.60;;;0.60;;
45730;SDS011;31440;48.584;13.460;2023-02-26T11:00:31;0.82;;;0.82;;
45730;SDS011;31440;48.584;13.460;2023-02-26T11:03:39;0.93;;;0.93;;
45730;SDS011;31440;48.584;13.460;2023-02-26T11:06:48;0.60;;;0.60;;
45730;SDS011;31440;48.584;13.460;2023-02-26T11:09:56;0.50;;;0.50;;
45730;SDS011;31440;48.584;13.460;2023-02-26T11:13:02;3.30;;;0.70;;
45730;SDS011;31440;48.584;13.460;2023-02-26T11:16:10;1.77;;;1.00;;
45730;SDS011;31440;48.584;13.460;2023-02-26T11:19:19;2.50;;;0.70;;
45730;SDS011;31440;48.584;13.460;2023-02-26T11:22:33;0.50;;;0.50;;
45730;SDS011;31440;48.584;13.460;2023-02-26T11:25:41;0.95;;;0.85;;
45730;SDS011;31440;48.584;13.460;2023-02-26T11:28:48;3.13;;;0.65;;
45730;SDS011;31440;48.584;13.460;2023-02-26T11:31:56;0.88;;;0.88;;
45730;SDS011;31440;48.584;13.460;2023-02-26T11:35:08;0.95;;;0.77;;
45730;SDS011;31440;48.584;13.460;2023-02-26T11:38:21;0.63;;;0.60;;
45730;SDS011;31440;48.584;13.460;2023-02-26T11:41:29;1.33;;;0.70;;
45730;SDS011;31440;48.584;13.460;2023-02-26T11:47:43;1.40;;;0.88;;
45730;SDS011;31440;48.584;13.460;2023-02-26T11:50:48;3.63;;;0.80;;
45730;SDS011;31440;48.584;13.460;2023-02-26T11:53:56;0.57;;;0.57;;
45730;SDS011;31440;48.584;13.460;2023-02-26T11:57:06;0.77;;;0.77;;
45730;SDS011;31440;48.584;13.460;2023-02-26T12:00:20;1.55;;;0.90;;
45730;SDS011;31440;48.584;13.460;2023-02-26T12:03:30;1.15;;;1.05;;
45730;SDS011;31440;48.584;13.460;2023-02-26T12:06:37;3.10;;;1.23;;
45730;SDS011;31440;48.584;13.460;2023-02-26T12:09:42;0.70;;;0.70;;
45730;SDS011;31440;48.584;13.460;2023-02-26T12:12:54;1.13;;;0.60;;
45730;SDS011;31440;48.584;13.460;2023-02-26T12:16:25;2.08;;;0.65;;
45730;SDS011;31440;48.584;13.460;2023-02-26T12:23:34;2.92;;;1.48;;
45730;SDS011;31440;48.584;13.460;2023-02-26T12:31:46;2.10;;;0.82;;
45730;SDS011;31440;48.584;13.460;2023-02-26T12:38:40;0.63;;;0.60;;
45730;SDS011;31440;48.584;13.460;2023-02-26T12:45:29;0.90;;;0.85;;
45730;SDS011;31440;48.584;13.460;2023-02-26T12:52:40;0.85;;;0.82;;
45730;SDS011;31440;48.584;13.460;2023-02-26T13:00:22;0.73;;;0.70;;
45730;SDS011;31440;48.584;13.460;2023-02-26T13:03:24;0.70;;;0.70;;
45730;SDS011;31440;48.584;13.460;2023-02-26T13:06:58;0.60;;;0.60;;
45730;SDS011;31440;48.584;13.460;2023-02-26T13:10:48;0.70;;;0.70;;
45730;SDS011;31440;48.584;13.460;2023-02-26T13:23:43;1.63;;;0.60;;
45730;SDS011;31440;48.584;13.460;2023-02-26T13:27:00;1.33;;;0.50;;
45730;SDS011;31440;48.584;13.460;2023-02-26T13:30:24;1.20;;;1.10;;
45730;SDS011;31440;48.584;13.460;2023-02-26T13:33:36;0.60;;;0.60;;
45730;SDS011;31440;48.584;13.460;2023-02-26T13:36:43;1.10;;;0.80;;
45730;SDS011;31440;48.584;13.460;2023-02-26T13:43:13;0.73;;;0.68;;
45730;SDS011;31440;48.584;13.460;2023-02-26T13:56:52;1.40;;;0.60;;
45730;SDS011;31440;48.584;13.460;2023-02-26T14:00:06;0.38;;;0.38;;
45730;SDS011;31440;48.584;13.460;2023-02-26T14:03:30;0.65;;;0.63;;
45730;SDS011;31440;48.584;13.460;2023-02-26T14:06:43;1.30;;;0.60;;
45730;SDS011;31440;48.584;13.460;2023-02-26T14:10:03;1.42;;;0.88;;
45730;SDS011;31440;48.584;13.460;2023-02-26T14:13:20;0.70;;;0.60;;
45730;SDS011;31440;48.584;13.460;2023-02-26T14:16:27;0.75;;;0.63;;
45730;SDS011;31440;48.584;13.460;2023-02-26T14:22:45;1.10;;;0.70;;
45730;SDS011;31440;48.584;13.460;2023-02-26T14:25:51;0.60;;;0.60;;
45730;SDS011;31440;48.584;13.460;2023-02-26T14:32:28;0.68;;;0.68;;
45730;SDS011;31440;48.584;13.460;2023-02-26T14:35:35;1.33;;;0.52;;
45730;SDS011;31440;48.584;13.460;2023-02-26T14:38:44;0.52;;;0.52;;
45730;SDS011;31440;48.584;13.460;2023-02-26T14:41:54;0.95;;;0.80;;
45730;SDS011;31440;48.584;13.460;2023-02-26T14:45:48;0.70;;;0.60;;
45730;SDS011;31440;48.584;13.460;2023-02-26T14:48:26;0.52;;;0.52;;
45730;SDS011;31440;48.584;13.460;2023-02-26T14:51:39;1.55;;;0.80;;
45730;SDS011;31440;48.584;13.460;2023-02-26T14:55:12;1.33;;;0.70;;
45730;SDS011;31440;48.584;13.460;2023-02-26T14:58:34;0.98;;;0.80;;
45730;SDS011;31440;48.584;13.460;2023-02-26T15:02:00;1.75;;;0.60;;
45730;SDS011;31440;48.584;13.460;2023-02-26T15:05:31;1.10;;;0.70;;
45730;SDS011;31440;48.584;13.460;2023-02-26T15:08:51;0.80;;;0.75;;
45730;SDS011;31440;48.584;13.460;2023-02-26T15:12:47;2.50;;;0.75;;
45730;SDS011;31440;48.584;13.460;2023-02-26T15:19:49;0.50;;;0.50;;
45730;SDS011;31440;48.584;13.460;2023-02-26T15:26:32;0.98;;;0.88;;
45730;SDS011;31440;48.584;13.460;2023-02-26T15:29:39;0.88;;;0.70;;
45730;SDS011;31440;48.584;13.460;2023-02-26T15:32:45;3.08;;;1.48;;
45730;SDS011;31440;48.584;13.460;2023-02-26T15:35:51;1.85;;;1.15;;
45730;SDS011;31440;48.584;13.460;2023-02-26T15:38:58;1.20;;;0.93;;
45730;SDS011;31440;48.584;13.460;2023-02-26T15:42:04;2.25;;;0.90;;
45730;SDS011;31440;48.584;13.460;2023-02-26T15:45:21;1.42;;;1.23;;
45730;SDS011;31440;48.584;13.460;2023-02-26T15:48:32;0.95;;;0.88;;
45730;SDS011;31440;48.584;13.460;2023-02-26T15:51:40;1.77;;;1.00;;
45730;SDS011;31440;48.584;13.460;2023-02-26T15:54:57;0.80;;;0.63;;
45730;SDS011;31440;48.584;13.460;2023-02-26T15:58:05;0.88;;;0.88;;
45730;SDS011;31440;48.584;13.460;2023-02-26T16:01:15;0.90;;;0.75;;
45730;SDS011;31440;48.584;13.460;2023-02-26T16:04:22;1.40;;;0.82;;
45730;SDS011;31440;48.584;13.460;2023-02-26T16:10:35;0.90;;;0.80;;
45730;SDS011;31440;48.584;13.460;2023-02-26T16:13:44;1.15;;;0.63;;
45730;SDS011;31440;48.584;13.460;2023-02-26T16:16:52;2.22;;;1.38;;
45730;SDS011;31440;48.584;13.460;2023-02-26T16:19:59;2.53;;;1.00;;
45730;SDS011;31440;48.584;13.460;2023-02-26T16:23:14;1.13;;;1.02;;
45730;SDS011;31440;48.584;13.460;2023-02-26T16:26:31;3.08;;;1.00;;
45730;SDS011;31440;48.584;13.460;2023-02-26T16:29:43;0.93;;;0.80;;
45730;SDS011;31440;48.584;13.460;2023-02-26T16:32:53;3.95;;;1.67;;
45730;SDS011;31440;48.584;13.460;2023-02-26T16:36:10;0.70;;;0.70;;
45730;SDS011;31440;48.584;13.460;2023-02-26T16:45:56;0.98;;;0.98;;
45730;SDS011;31440;48.584;13.460;2023-02-26T16:49:05;2.05;;;1.08;;
45730;SDS011;31440;48.584;13.460;2023-02-26T16:52:23;1.15;;;1.00;;
45730;SDS011;31440;48.584;13.460;2023-02-26T16:55:30;1.33;;;0.90;;
45730;SDS011;31440;48.584;13.460;2023-02-26T16:58:38;1.00;;;0.70;;
45730;SDS011;31440;48.584;13.460;2023-02-26T17:04:51;1.10;;;1.00;;
45730;SDS011;31440;48.584;13.460;2023-02-26T17:08:04;2.38;;;1.40;;
45730;SDS011;31440;48.584;13.460;2023-02-26T17:11:32;1.30;;;1.20;;
45730;SDS011;31440;48.584;13.460;2023-02-26T17:14:42;5.20;;;1.10;;
45730;SDS011;31440;48.584;13.460;2023-02-26T17:17:49;2.05;;;1.30;;
45730;SDS011;31440;48.584;13.460;2023-02-26T17:20:54;1.33;;;1.23;;
45730;SDS011;31440;48.584;13.460;2023-02-26T17:23:58;1.60;;;1.13;;
45730;SDS011;31440;48.584;13.460;2023-02-26T17:27:03;1.33;;;1.10;;
45730;SDS011;31440;48.584;13.460;2023-02-26T17:30:10;1.98;;;1.20;;
45730;SDS011;31440;48.584;13.460;2023-02-26T17:33:21;1.80;;;1.20;;
45730;SDS011;31440;48.584;13.460;2023-02-26T17:39:33;2.70;;;1.52;;
45730;SDS011;31440;48.584;13.460;2023-02-26T17:42:38;1.70;;;1.48;;
45730;SDS011;31440;48.584;13.460;2023-02-26T17:45:43;1.70;;;1.38;;
45730;SDS011;31440;48.584;13.460;2023-02-26T17:51:54;2.58;;;1.67;;
45730;SDS011;31440;48.584;13.460;2023-02-26T17:54:59;2.38;;;1.90;;
45730;SDS011;31440;48.584;13.460;2023-02-26T17:58:04;2.20;;;1.50;;
45730;SDS011;31440;48.584;13.460;2023-02-26T18:01:10;2.58;;;1.08;;
45730;SDS011;31440;48.584;13.460;2023-02-26T18:04:14;2.13;;;1.48;;
45730;SDS011;31440;48.584;13.460;2023-02-26T18:10:25;1.48;;;1.38;;
45730;SDS011;31440;48.584;13.460;2023-02-26T18:13:30;3.03;;;1.63;;
45730;SDS011;31440;48.584;13.460;2023-02-26T18:16:35;2.60;;;1.60;;
45730;SDS011;31440;48.584;13.460;2023-02-26T18:19:43;2.10;;;1.35;;
45730;SDS011;31440;48.584;13.460;2023-02-26T18:22:49;3.38;;;2.42;;
45730;SDS011;31440;48.584;13.460;2023-02-26T18:25:54;1.98;;;1.52;;
45730;SDS011;31440;48.584;13.460;2023-02-26T18:28:59;1.92;;;1.30;;
45730;SDS011;31440;48.584;13.460;2023-02-26T18:32:03;1.75;;;1.55;;
45730;SDS011;31440;48.584;13.460;2023-02-26T18:35:08;2.17;;;1.45;;
45730;SDS011;31440;48.584;13.460;2023-02-26T18:38:13;3.75;;;1.55;;
45730;SDS011;31440;48.584;13.460;2023-02-26T18:41:20;1.90;;;1.40;;
45730;SDS011;31440;48.584;13.460;2023-02-26T18:44:25;2.50;;;1.23;;
45730;SDS011;31440;48.584;13.460;2023-02-26T18:47:31;2.17;;;1.60;;
45730;SDS011;31440;48.584;13.460;2023-02-26T18:50:36;2.13;;;1.63;;
45730;SDS011;31440;48.584;13.460;2023-02-26T18:53:41;2.42;;;1.70;;
45730;SDS011;31440;48.584;13.460;2023-02-26T18:59:51;1.80;;;1.50;;
45730;SDS011;31440;48.584;13.460;2023-02-26T19:02:56;3.30;;;1.67;;
45730;SDS011;31440;48.584;13.460;2023-02-26T19:06:01;1.35;;;1.25;;
45730;SDS011;31440;48.584;13.460;2023-02-26T19:09:08;2.75;;;1.30;;
45730;SDS011;31440;48.584;13.460;2023-02-26T19:12:13;1.50;;;1.40;;
45730;SDS011;31440;48.584;13.460;2023-02-26T19:15:21;2.05;;;1.85;;
45730;SDS011;31440;48.584;13.460;2023-02-26T19:18:27;1.70;;;1.60;;
45730;SDS011;31440;48.584;13.460;2023-02-26T19:21:32;2.10;;;1.90;;
45730;SDS011;31440;48.584;13.460;2023-02-26T19:24:37;2.00;;;1.58;;
45730;SDS011;31440;48.584;13.460;2023-02-26T19:27:42;1.73;;;1.63;;
45730;SDS011;31440;48.584;13.460;2023-02-26T19:30:48;3.17;;;2.30;;
45730;SDS011;31440;48.584;13.460;2023-02-26T19:33:56;3.22;;;1.70;;
45730;SDS011;31440;48.584;13.460;2023-02-26T19:37:00;2.03;;;1.80;;
45730;SDS011;31440;48.584;13.460;2023-02-26T19:40:05;4.68;;;2.03;;
45730;SDS011;31440;48.584;13.460;2023-02-26T19:43:14;2.90;;;2.10;;
45730;SDS011;31440;48.584;13.460;2023-02-26T19:49:26;3.50;;;2.67;;
45730;SDS011;31440;48.584;13.460;2023-02-26T19:52:31;2.90;;;2.10;;
45730;SDS011;31440;48.584;13.460;2023-02-26T19:55:36;2.55;;;2.00;;
45730;SDS011;31440;48.584;13.460;2023-02-26T20:01:47;4.35;;;2.45;;
45730;SDS011;31440;48.584;13.460;2023-02-26T20:04:52;3.67;;;2.10;;
45730;SDS011;31440;48.584;13.460;2023-02-26T20:07:57;2.22;;;1.80;;
45730;SDS011;31440;48.584;13.460;2023-02-26T20:11:01;3.15;;;2.10;;
45730;SDS011;31440;48.584;13.460;2023-02-26T20:14:06;2.80;;;2.00;;
45730;SDS011;31440;48.584;13.460;2023-02-26T20:17:11;3.42;;;2.50;;
45730;SDS011;31440;48.584;13.460;2023-02-26T20:20:15;2.45;;;1.80;;
45730;SDS011;31440;48.584;13.460;2023-02-26T20:23:20;4.03;;;2.05;;
45730;SDS011;31440;48.584;13.460;2023-02-26T20:26:28;1.95;;;1.75;;
45730;SDS011;31440;48.584;13.460;2023-02-26T20:29:32;2.17;;;1.90;;
45730;SDS011;31440;48.584;13.460;2023-02-26T20:32:37;3.40;;;2.92;;
45730;SDS011;31440;48.584;13.460;2023-02-26T20:35:43;6.00;;;4.50;;
45730;SDS011;31440;48.584;13.460;2023-02-26T20:38:49;5.63;;;3.97;;
45730;SDS011;31440;48.584;13.460;2023-02-26T20:41:53;4.85;;;3.55;;
45730;SDS011;31440;48.584;13.460;2023-02-26T20:44:58;5.05;;;2.80;;
45730;SDS011;31440;48.584;13.460;2023-02-26T20:48:03;4.90;;;2.53;;
45730;SDS011;31440;48.584;13.460;2023-02-26T20:51:09;4.28;;;2.85;;
45730;SDS011;31440;48.584;13.460;2023-02-26T20:54:15;3.42;;;2.47;;
45730;SDS011;31440;48.584;13.460;2023-02-26T20:57:22;3.75;;;2.30;;
45730;SDS011;31440;48.584;13.460;2023-02-26T21:00:27;4.10;;;3.05;;
45730;SDS011;31440;48.584;13.460;2023-02-26T21:03:32;3.40;;;3.00;;
45730;SDS011;31440;48.584;13.460;2023-02-26T21:09:42;4.93;;;3.50;;
45730;SDS011;31440;48.584;13.460;2023-02-26T21:12:50;3.60;;;2.25;;
45730;SDS011;31440;48.584;13.460;2023-02-26T21:15:55;5.10;;;3.55;;
45730;SDS011;31440;48.584;13.460;2023-02-26T21:19:00;2.45;;;1.88;;
45730;SDS011;31440;48.584;13.460;2023-02-26T21:22:05;2.25;;;1.85;;
45730;SDS011;31440;48.584;13.460;2023-02-26T21:25:10;5.18;;;1.83;;
45730;SDS011;31440;48.584;13.460;2023-02-26T21:28:15;2.10;;;1.65;;